sensor_id;sensor_type;location;lat;lon;timestamp;P1;durP1;ratioP1;P2;durP2;ratioP2
76640;SDS011;65538;50.798;6.064;2023-03-21T00:00:58;9.57;;;4.45;;
76640;SDS011;65538;50.798;6.064;2023-03-21T00:03:24;12.77;;;3.97;;
76640;SDS011;65538;50.798;6.064;2023-03-21T00:05:50;14.45;;;4.47;;
76640;SDS011;65538;50.798;6.064;2023-03-21T00:08:18;12.73;;;5.10;;
76640;SDS011;65538;50.798;6.064;2023-03-21T00:10:43;9.35;;;3.58;;
76640;SDS011;65538;50.798;6.064;2023-03-21T00:13:09;11.88;;;4.13;;
76640;SDS011;65538;50.798;6.064;2023-03-21T00:15:37;13.10;;;4.97;;
76640;SDS011;65538;50.798;6.064;2023-03-21T00:18:16;13.52;;;4.07;;
76640;SDS011;65538;50.798;6.064;2023-03-21T00:20:42;10.98;;;4.55;;
76640;SDS011;65538;50.798;6.064;2023-03-21T00:23:15;16.02;;;4.75;;
76640;SDS011;65538;50.798;6.064;2023-03-21T00:25:41;12.53;;;4.30;;
76640;SDS011;65538;50.798;6.064;2023-03-21T00:28:06;13.37;;;4.23;;
76640;SDS011;65538;50.798;6.064;2023-03-21T00:30:31;11.23;;;5.10;;
76640;SDS011;65538;50.798;6.064;2023-03-21T00:32:56;9.27;;;3.77;;
76640;SDS011;65538;50.798;6.064;2023-03-21T00:35:21;10.87;;;4.43;;
76640;SDS011;65538;50.798;6.064;2023-03-21T00:37:47;12.70;;;4.70;;
76640;SDS011;65538;50.798;6.064;2023-03-21T00:40:12;10.07;;;3.67;;
76640;SDS011;65538;50.798;6.064;2023-03-21T00:42:37;18.05;;;5.07;;
76640;SDS011;65538;50.798;6.064;2023-03-21T00:45:03;8.67;;;2.90;;
76640;SDS011;65538;50.798;6.064;2023-03-21T00:47:29;20.73;;;6.07;;
76640;SDS011;65538;50.798;6.064;2023-03-21T00:49:54;12.10;;;4.47;;
76640;SDS011;65538;50.798;6.064;2023-03-21T00:52:19;14.23;;;4.57;;
76640;SDS011;65538;50.798;6.064;2023-03-21T00:54:45;24.05;;;5.35;;
76640;SDS011;65538;50.798;6.064;2023-03-21T00:57:10;10.27;;;4.33;;
76640;SDS011;65538;50.798;6.064;2023-03-21T00:59:35;10.90;;;4.73;;
76640;SDS011;65538;50.798;6.064;2023-03-21T01:02:00;10.77;;;4.87;;
76640;SDS011;65538;50.798;6.064;2023-03-21T01:04:26;15.23;;;4.53;;
76640;SDS011;65538;50.798;6.064;2023-03-21T01:06:52;10.98;;;3.95;;
76640;SDS011;65538;50.798;6.064;2023-03-21T01:09:19;9.30;;;3.90;;
76640;SDS011;65538;50.798;6.064;2023-03-21T01:11:45;10.60;;;4.47;;
76640;SDS011;65538;50.798;6.064;2023-03-21T01:14:11;13.48;;;4.72;;
76640;SDS011;65538;50.798;6.064;2023-03-21T01:16:37;8.80;;;3.20;;
76640;SDS011;65538;50.798;6.064;2023-03-21T01:19:03;12.25;;;3.88;;
76640;SDS011;65538;50.798;6.064;2023-03-21T01:21:28;12.10;;;4.75;;
76640;SDS011;65538;50.798;6.064;2023-03-21T01:23:54;15.70;;;4.87;;
76640;SDS011;65538;50.798;6.064;2023-03-21T01:26:19;10.35;;;4.38;;
76640;SDS011;65538;50.798;6.064;2023-03-21T01:28:44;13.77;;;4.30;;
76640;SDS011;65538;50.798;6.064;2023-03-21T01:31:10;11.38;;;4.05;;
76640;SDS011;65538;50.798;6.064;2023-03-21T01:33:36;11.23;;;3.95;;
76640;SDS011;65538;50.798;6.064;2023-03-21T01:36:02;13.17;;;4.97;;
76640;SDS011;65538;50.798;6.064;2023-03-21T01:38:28;11.52;;;4.05;;
76640;SDS011;65538;50.798;6.064;2023-03-21T01:40:53;10.63;;;4.22;;
76640;SDS011;65538;50.798;6.064;2023-03-21T01:43:23;12.03;;;4.03;;
76640;SDS011;65538;50.798;6.064;2023-03-21T01:48:33;12.23;;;4.75;;
76640;SDS011;65538;50.798;6.064;2023-03-21T01:50:59;16.30;;;4.65;;
76640;SDS011;65538;50.798;6.064;2023-03-21T01:53:26;13.45;;;4.10;;
76640;SDS011;65538;50.798;6.064;2023-03-21T01:55:55;14.55;;;4.75;;
76640;SDS011;65538;50.798;6.064;2023-03-21T01:58:20;13.07;;;4.35;;
76640;SDS011;65538;50.798;6.064;2023-03-21T02:00:46;13.07;;;3.90;;
76640;SDS011;65538;50.798;6.064;2023-03-21T02:03:13;11.77;;;3.53;;
76640;SDS011;65538;50.798;6.064;2023-03-21T02:08:08;14.13;;;3.92;;
76640;SDS011;65538;50.798;6.064;2023-03-21T02:10:33;13.77;;;4.13;;
76640;SDS011;65538;50.798;6.064;2023-03-21T02:13:02;10.43;;;4.30;;
76640;SDS011;65538;50.798;6.064;2023-03-21T02:15:33;10.07;;;4.10;;
76640;SDS011;65538;50.798;6.064;2023-03-21T02:18:02;11.15;;;3.40;;
76640;SDS011;65538;50.798;6.064;2023-03-21T02:23:25;10.10;;;3.63;;
76640;SDS011;65538;50.798;6.064;2023-03-21T02:28:32;9.07;;;3.72;;
76640;SDS011;65538;50.798;6.064;2023-03-21T02:38:50;9.90;;;3.75;;
76640;SDS011;65538;50.798;6.064;2023-03-21T02:41:18;13.43;;;3.83;;
76640;SDS011;65538;50.798;6.064;2023-03-21T02:43:58;15.90;;;4.10;;
76640;SDS011;65538;50.798;6.064;2023-03-21T02:46:41;13.88;;;4.53;;
76640;SDS011;65538;50.798;6.064;2023-03-21T02:49:09;8.52;;;3.42;;
76640;SDS011;65538;50.798;6.064;2023-03-21T02:51:36;15.43;;;3.97;;
76640;SDS011;65538;50.798;6.064;2023-03-21T02:54:04;8.73;;;3.72;;
76640;SDS011;65538;50.798;6.064;2023-03-21T02:56:31;9.15;;;3.47;;
76640;SDS011;65538;50.798;6.064;2023-03-21T02:58:57;10.65;;;3.53;;
76640;SDS011;65538;50.798;6.064;2023-03-21T03:01:23;13.27;;;3.58;;
76640;SDS011;65538;50.798;6.064;2023-03-21T03:03:49;11.18;;;3.58;;
76640;SDS011;65538;50.798;6.064;2023-03-21T03:06:19;9.57;;;3.43;;
76640;SDS011;65538;50.798;6.064;2023-03-21T03:08:53;10.18;;;3.38;;
76640;SDS011;65538;50.798;6.064;2023-03-21T03:11:22;7.07;;;2.83;;
76640;SDS011;65538;50.798;6.064;2023-03-21T03:18:58;14.00;;;4.50;;
76640;SDS011;65538;50.798;6.064;2023-03-21T03:24:09;11.73;;;3.17;;
76640;SDS011;65538;50.798;6.064;2023-03-21T03:26:40;10.65;;;3.38;;
76640;SDS011;65538;50.798;6.064;2023-03-21T03:29:10;11.02;;;3.08;;
76640;SDS011;65538;50.798;6.064;2023-03-21T03:46:38;11.02;;;3.15;;
76640;SDS011;65538;50.798;6.064;2023-03-21T04:27:47;13.50;;;3.95;;
76640;SDS011;65538;50.798;6.064;2023-03-21T04:54:11;13.63;;;5.10;;
76640;SDS011;65538;50.798;6.064;2023-03-21T04:56:37;12.43;;;3.47;;
76640;SDS011;65538;50.798;6.064;2023-03-21T07:18:03;7.45;;;2.55;;
76640;SDS011;65538;50.798;6.064;2023-03-21T07:20:28;6.63;;;3.30;;
76640;SDS011;65538;50.798;6.064;2023-03-21T07:22:54;5.72;;;2.10;;
76640;SDS011;65538;50.798;6.064;2023-03-21T07:25:20;10.52;;;1.73;;
76640;SDS011;65538;50.798;6.064;2023-03-21T07:27:45;8.25;;;1.88;;
76640;SDS011;65538;50.798;6.064;2023-03-21T07:30:11;8.95;;;2.60;;
76640;SDS011;65538;50.798;6.064;2023-03-21T07:32:37;7.82;;;2.55;;
76640;SDS011;65538;50.798;6.064;2023-03-21T07:35:02;8.57;;;3.05;;
76640;SDS011;65538;50.798;6.064;2023-03-21T07:37:28;10.95;;;2.67;;
76640;SDS011;65538;50.798;6.064;2023-03-21T07:39:53;7.70;;;2.30;;
76640;SDS011;65538;50.798;6.064;2023-03-21T07:42:19;8.93;;;2.58;;
76640;SDS011;65538;50.798;6.064;2023-03-21T07:44:44;5.35;;;1.98;;
76640;SDS011;65538;50.798;6.064;2023-03-21T07:47:10;12.13;;;2.67;;
76640;SDS011;65538;50.798;6.064;2023-03-21T07:49:35;11.63;;;2.23;;
76640;SDS011;65538;50.798;6.064;2023-03-21T08:31:49;7.70;;;2.40;;
76640;SDS011;65538;50.798;6.064;2023-03-21T08:40:30;7.18;;;3.03;;
76640;SDS011;65538;50.798;6.064;2023-03-21T08:43:30;9.15;;;2.50;;
76640;SDS011;65538;50.798;6.064;2023-03-21T08:57:52;6.13;;;2.25;;
76640;SDS011;65538;50.798;6.064;2023-03-21T09:00:19;4.60;;;1.80;;
76640;SDS011;65538;50.798;6.064;2023-03-21T09:03:42;8.27;;;2.55;;
76640;SDS011;65538;50.798;6.064;2023-03-21T09:06:06;5.47;;;2.15;;
76640;SDS011;65538;50.798;6.064;2023-03-21T09:08:37;8.02;;;2.38;;
76640;SDS011;65538;50.798;6.064;2023-03-21T09:11:12;8.93;;;2.17;;
76640;SDS011;65538;50.798;6.064;2023-03-21T09:13:52;11.93;;;3.28;;
76640;SDS011;65538;50.798;6.064;2023-03-21T09:16:23;9.07;;;2.28;;
76640;SDS011;65538;50.798;6.064;2023-03-21T09:18:55;6.25;;;2.47;;
76640;SDS011;65538;50.798;6.064;2023-03-21T09:21:31;8.75;;;2.45;;
76640;SDS011;65538;50.798;6.064;2023-03-21T09:24:16;6.10;;;1.65;;
76640;SDS011;65538;50.798;6.064;2023-03-21T09:47:56;9.13;;;2.42;;
76640;SDS011;65538;50.798;6.064;2023-03-21T09:50:25;8.07;;;2.80;;
76640;SDS011;65538;50.798;6.064;2023-03-21T09:53:07;5.40;;;2.28;;
76640;SDS011;65538;50.798;6.064;2023-03-21T09:55:34;8.77;;;2.90;;
76640;SDS011;65538;50.798;6.064;2023-03-21T10:00:26;7.55;;;2.53;;
76640;SDS011;65538;50.798;6.064;2023-03-21T10:02:55;7.03;;;1.90;;
76640;SDS011;65538;50.798;6.064;2023-03-21T10:10:19;8.33;;;2.47;;
76640;SDS011;65538;50.798;6.064;2023-03-21T10:12:46;9.30;;;2.58;;
76640;SDS011;65538;50.798;6.064;2023-03-21T10:15:17;5.70;;;2.53;;
76640;SDS011;65538;50.798;6.064;2023-03-21T10:17:43;8.07;;;3.35;;
76640;SDS011;65538;50.798;6.064;2023-03-21T10:20:18;11.30;;;3.20;;
76640;SDS011;65538;50.798;6.064;2023-03-21T10:22:45;8.55;;;3.25;;
76640;SDS011;65538;50.798;6.064;2023-03-21T10:25:19;8.75;;;2.50;;
76640;SDS011;65538;50.798;6.064;2023-03-21T10:27:45;8.63;;;2.40;;
76640;SDS011;65538;50.798;6.064;2023-03-21T10:32:58;6.85;;;2.55;;
76640;SDS011;65538;50.798;6.064;2023-03-21T10:35:26;5.53;;;1.90;;
76640;SDS011;65538;50.798;6.064;2023-03-21T10:37:51;8.05;;;2.17;;
76640;SDS011;65538;50.798;6.064;2023-03-21T10:40:17;6.87;;;2.50;;
76640;SDS011;65538;50.798;6.064;2023-03-21T10:42:42;6.78;;;1.92;;
76640;SDS011;65538;50.798;6.064;2023-03-21T10:45:15;5.60;;;2.72;;
76640;SDS011;65538;50.798;6.064;2023-03-21T10:47:42;6.18;;;2.30;;
76640;SDS011;65538;50.798;6.064;2023-03-21T10:50:12;7.30;;;3.13;;
76640;SDS011;65538;50.798;6.064;2023-03-21T10:52:41;4.28;;;1.92;;
76640;SDS011;65538;50.798;6.064;2023-03-21T10:55:17;5.20;;;2.17;;
76640;SDS011;65538;50.798;6.064;2023-03-21T10:57:44;6.53;;;3.08;;
76640;SDS011;65538;50.798;6.064;2023-03-21T11:00:10;9.45;;;3.35;;
76640;SDS011;65538;50.798;6.064;2023-03-21T11:02:42;9.25;;;2.78;;
76640;SDS011;65538;50.798;6.064;2023-03-21T11:05:16;9.48;;;3.85;;
76640;SDS011;65538;50.798;6.064;2023-03-21T11:07:43;7.63;;;3.50;;
76640;SDS011;65538;50.798;6.064;2023-03-21T11:10:12;7.07;;;3.33;;
76640;SDS011;65538;50.798;6.064;2023-03-21T11:12:38;8.48;;;3.15;;
76640;SDS011;65538;50.798;6.064;2023-03-21T11:17:48;6.50;;;2.72;;
76640;SDS011;65538;50.798;6.064;2023-03-21T11:20:16;7.30;;;3.58;;
76640;SDS011;65538;50.798;6.064;2023-03-21T11:22:45;7.68;;;3.78;;
76640;SDS011;65538;50.798;6.064;2023-03-21T11:25:19;9.27;;;4.18;;
76640;SDS011;65538;50.798;6.064;2023-03-21T11:27:49;6.32;;;3.15;;
76640;SDS011;65538;50.798;6.064;2023-03-21T11:30:23;7.00;;;3.45;;
76640;SDS011;65538;50.798;6.064;2023-03-21T11:32:56;6.47;;;3.25;;
76640;SDS011;65538;50.798;6.064;2023-03-21T11:35:36;9.48;;;3.15;;
76640;SDS011;65538;50.798;6.064;2023-03-21T11:38:05;5.47;;;2.45;;
76640;SDS011;65538;50.798;6.064;2023-03-21T11:40:35;6.13;;;2.88;;
76640;SDS011;65538;50.798;6.064;2023-03-21T11:43:24;5.18;;;2.85;;
76640;SDS011;65538;50.798;6.064;2023-03-21T11:48:25;8.98;;;3.40;;
76640;SDS011;65538;50.798;6.064;2023-03-21T11:50:51;5.65;;;2.78;;
76640;SDS011;65538;50.798;6.064;2023-03-21T11:53:32;7.32;;;2.88;;
76640;SDS011;65538;50.798;6.064;2023-03-21T11:58:31;5.43;;;2.00;;
76640;SDS011;65538;50.798;6.064;2023-03-21T12:05:57;7.65;;;2.33;;
76640;SDS011;65538;50.798;6.064;2023-03-21T12:13:50;4.55;;;2.15;;
76640;SDS011;65538;50.798;6.064;2023-03-21T12:16:20;6.07;;;2.20;;
76640;SDS011;65538;50.798;6.064;2023-03-21T12:29:06;5.43;;;2.10;;
76640;SDS011;65538;50.798;6.064;2023-03-21T12:39:34;6.57;;;3.10;;
76640;SDS011;65538;50.798;6.064;2023-03-21T12:42:08;12.75;;;2.60;;
76640;SDS011;65538;50.798;6.064;2023-03-21T12:44:36;4.00;;;2.45;;
76640;SDS011;65538;50.798;6.064;2023-03-21T12:47:08;6.22;;;2.88;;
76640;SDS011;65538;50.798;6.064;2023-03-21T12:49:39;6.03;;;3.10;;
76640;SDS011;65538;50.798;6.064;2023-03-21T12:52:13;5.85;;;2.65;;
76640;SDS011;65538;50.798;6.064;2023-03-21T12:54:51;5.90;;;3.10;;
76640;SDS011;65538;50.798;6.064;2023-03-21T12:57:22;8.50;;;2.65;;
76640;SDS011;65538;50.798;6.064;2023-03-21T12:59:53;7.78;;;2.25;;
76640;SDS011;65538;50.798;6.064;2023-03-21T13:07:42;5.57;;;2.05;;
76640;SDS011;65538;50.798;6.064;2023-03-21T13:10:28;6.53;;;2.50;;
76640;SDS011;65538;50.798;6.064;2023-03-21T13:16:08;5.65;;;2.05;;
76640;SDS011;65538;50.798;6.064;2023-03-21T13:24:25;5.00;;;2.30;;
76640;SDS011;65538;50.798;6.064;2023-03-21T13:30:25;4.72;;;2.08;;
76640;SDS011;65538;50.798;6.064;2023-03-21T13:36:11;8.07;;;2.13;;
76640;SDS011;65538;50.798;6.064;2023-03-21T13:38:40;5.00;;;2.53;;
76640;SDS011;65538;50.798;6.064;2023-03-21T13:41:17;3.60;;;2.03;;
76640;SDS011;65538;50.798;6.064;2023-03-21T13:49:36;4.80;;;1.85;;
76640;SDS011;65538;50.798;6.064;2023-03-21T13:54:55;10.10;;;1.88;;
76640;SDS011;65538;50.798;6.064;2023-03-21T13:57:38;3.88;;;1.67;;
76640;SDS011;65538;50.798;6.064;2023-03-21T14:00:37;4.55;;;1.52;;
76640;SDS011;65538;50.798;6.064;2023-03-21T14:08:57;4.55;;;1.73;;
76640;SDS011;65538;50.798;6.064;2023-03-21T14:11:40;5.63;;;1.80;;
76640;SDS011;65538;50.798;6.064;2023-03-21T14:14:38;2.72;;;1.27;;
76640;SDS011;65538;50.798;6.064;2023-03-21T14:17:47;2.75;;;1.25;;
76640;SDS011;65538;50.798;6.064;2023-03-21T14:23:46;3.53;;;1.58;;
76640;SDS011;65538;50.798;6.064;2023-03-21T14:32:30;5.35;;;2.00;;
76640;SDS011;65538;50.798;6.064;2023-03-21T14:46:36;5.55;;;1.77;;
76640;SDS011;65538;50.798;6.064;2023-03-21T14:49:11;4.32;;;1.80;;
76640;SDS011;65538;50.798;6.064;2023-03-21T14:51:37;4.95;;;1.80;;
76640;SDS011;65538;50.798;6.064;2023-03-21T14:54:03;5.20;;;1.80;;
76640;SDS011;65538;50.798;6.064;2023-03-21T14:56:28;3.97;;;1.65;;
76640;SDS011;65538;50.798;6.064;2023-03-21T14:58:53;4.72;;;1.90;;
76640;SDS011;65538;50.798;6.064;2023-03-21T15:01:29;5.05;;;1.77;;
76640;SDS011;65538;50.798;6.064;2023-03-21T15:03:56;4.93;;;1.60;;
76640;SDS011;65538;50.798;6.064;2023-03-21T15:06:22;3.63;;;1.65;;
76640;SDS011;65538;50.798;6.064;2023-03-21T15:08:53;3.87;;;1.30;;
76640;SDS011;65538;50.798;6.064;2023-03-21T15:11:21;2.47;;;1.25;;
76640;SDS011;65538;50.798;6.064;2023-03-21T15:13:52;5.88;;;2.28;;
76640;SDS011;65538;50.798;6.064;2023-03-21T15:16:18;4.13;;;1.50;;
76640;SDS011;65538;50.798;6.064;2023-03-21T15:18:44;4.32;;;1.70;;
76640;SDS011;65538;50.798;6.064;2023-03-21T15:21:14;6.95;;;1.55;;
76640;SDS011;65538;50.798;6.064;2023-03-21T15:23:41;3.63;;;1.42;;
76640;SDS011;65538;50.798;6.064;2023-03-21T15:26:11;7.65;;;1.65;;
76640;SDS011;65538;50.798;6.064;2023-03-21T15:28:37;3.45;;;1.40;;
76640;SDS011;65538;50.798;6.064;2023-03-21T15:31:15;5.77;;;1.83;;
76640;SDS011;65538;50.798;6.064;2023-03-21T15:33:43;7.53;;;3.53;;
76640;SDS011;65538;50.798;6.064;2023-03-21T15:36:09;2.63;;;1.05;;
76640;SDS011;65538;50.798;6.064;2023-03-21T15:41:16;3.73;;;1.47;;
76640;SDS011;65538;50.798;6.064;2023-03-21T15:46:45;3.45;;;1.70;;
76640;SDS011;65538;50.798;6.064;2023-03-21T15:51:37;4.67;;;1.40;;
76640;SDS011;65538;50.798;6.064;2023-03-21T15:56:33;3.85;;;1.40;;
76640;SDS011;65538;50.798;6.064;2023-03-21T15:59:00;4.57;;;1.50;;
76640;SDS011;65538;50.798;6.064;2023-03-21T16:01:26;3.88;;;1.17;;
76640;SDS011;65538;50.798;6.064;2023-03-21T16:03:54;3.50;;;1.45;;
76640;SDS011;65538;50.798;6.064;2023-03-21T16:06:20;4.25;;;1.80;;
76640;SDS011;65538;50.798;6.064;2023-03-21T16:08:47;4.65;;;1.23;;
76640;SDS011;65538;50.798;6.064;2023-03-21T16:11:17;4.07;;;1.50;;
76640;SDS011;65538;50.798;6.064;2023-03-21T16:13:43;3.75;;;1.42;;
76640;SDS011;65538;50.798;6.064;2023-03-21T16:16:29;3.60;;;1.40;;
76640;SDS011;65538;50.798;6.064;2023-03-21T16:18:57;3.97;;;1.23;;
76640;SDS011;65538;50.798;6.064;2023-03-21T16:21:23;2.97;;;1.30;;
76640;SDS011;65538;50.798;6.064;2023-03-21T16:23:48;4.20;;;1.80;;
76640;SDS011;65538;50.798;6.064;2023-03-21T16:26:18;5.93;;;1.73;;
76640;SDS011;65538;50.798;6.064;2023-03-21T16:28:44;3.97;;;1.55;;
76640;SDS011;65538;50.798;6.064;2023-03-21T16:31:23;2.40;;;1.20;;
76640;SDS011;65538;50.798;6.064;2023-03-21T16:33:49;4.03;;;1.50;;
76640;SDS011;65538;50.798;6.064;2023-03-21T16:36:16;3.83;;;1.63;;
76640;SDS011;65538;50.798;6.064;2023-03-21T16:38:42;4.88;;;1.73;;
76640;SDS011;65538;50.798;6.064;2023-03-21T16:41:11;6.05;;;1.83;;
76640;SDS011;65538;50.798;6.064;2023-03-21T16:43:37;4.25;;;1.30;;
76640;SDS011;65538;50.798;6.064;2023-03-21T16:46:08;5.03;;;1.67;;
76640;SDS011;65538;50.798;6.064;2023-03-21T16:48:34;4.03;;;1.35;;
76640;SDS011;65538;50.798;6.064;2023-03-21T16:50:59;5.70;;;1.60;;
76640;SDS011;65538;50.798;6.064;2023-03-21T16:53:24;4.53;;;1.80;;
76640;SDS011;65538;50.798;6.064;2023-03-21T16:55:49;4.03;;;1.90;;
76640;SDS011;65538;50.798;6.064;2023-03-21T16:58:15;4.67;;;2.10;;
76640;SDS011;65538;50.798;6.064;2023-03-21T17:00:40;4.97;;;1.40;;
76640;SDS011;65538;50.798;6.064;2023-03-21T17:03:12;4.87;;;1.60;;
76640;SDS011;65538;50.798;6.064;2023-03-21T17:05:38;5.43;;;1.40;;
76640;SDS011;65538;50.798;6.064;2023-03-21T17:08:03;3.33;;;1.13;;
76640;SDS011;65538;50.798;6.064;2023-03-21T17:10:30;4.38;;;1.65;;
76640;SDS011;65538;50.798;6.064;2023-03-21T17:12:55;4.10;;;1.60;;
76640;SDS011;65538;50.798;6.064;2023-03-21T17:15:20;3.93;;;1.27;;
76640;SDS011;65538;50.798;6.064;2023-03-21T17:17:46;3.57;;;1.70;;
76640;SDS011;65538;50.798;6.064;2023-03-21T17:22:42;6.88;;;1.58;;
76640;SDS011;65538;50.798;6.064;2023-03-21T17:25:07;5.63;;;2.75;;
76640;SDS011;65538;50.798;6.064;2023-03-21T17:27:32;4.63;;;2.00;;
76640;SDS011;65538;50.798;6.064;2023-03-21T17:29:57;5.00;;;1.97;;
76640;SDS011;65538;50.798;6.064;2023-03-21T17:32:23;5.28;;;2.13;;
76640;SDS011;65538;50.798;6.064;2023-03-21T17:34:48;3.53;;;1.70;;
76640;SDS011;65538;50.798;6.064;2023-03-21T17:37:17;7.05;;;1.95;;
76640;SDS011;65538;50.798;6.064;2023-03-21T17:39:42;3.60;;;1.77;;
76640;SDS011;65538;50.798;6.064;2023-03-21T17:42:11;4.05;;;1.52;;
76640;SDS011;65538;50.798;6.064;2023-03-21T17:44:37;3.78;;;1.85;;
76640;SDS011;65538;50.798;6.064;2023-03-21T17:47:02;6.17;;;2.70;;
76640;SDS011;65538;50.798;6.064;2023-03-21T17:49:27;9.27;;;1.97;;
76640;SDS011;65538;50.798;6.064;2023-03-21T17:51:52;5.70;;;2.20;;
76640;SDS011;65538;50.798;6.064;2023-03-21T17:54:17;7.43;;;2.13;;
76640;SDS011;65538;50.798;6.064;2023-03-21T17:56:43;4.03;;;1.87;;
76640;SDS011;65538;50.798;6.064;2023-03-21T17:59:11;4.75;;;2.00;;
76640;SDS011;65538;50.798;6.064;2023-03-21T18:01:36;5.43;;;2.15;;
76640;SDS011;65538;50.798;6.064;2023-03-21T18:04:01;4.13;;;2.00;;
76640;SDS011;65538;50.798;6.064;2023-03-21T18:06:29;5.18;;;2.30;;
76640;SDS011;65538;50.798;6.064;2023-03-21T18:08:54;5.78;;;2.33;;
76640;SDS011;65538;50.798;6.064;2023-03-21T18:11:20;5.60;;;1.92;;
76640;SDS011;65538;50.798;6.064;2023-03-21T18:13:46;5.68;;;2.47;;
76640;SDS011;65538;50.798;6.064;2023-03-21T18:16:17;8.85;;;4.72;;
76640;SDS011;65538;50.798;6.064;2023-03-21T18:18:42;6.45;;;2.50;;
76640;SDS011;65538;50.798;6.064;2023-03-21T18:21:09;5.70;;;2.28;;
76640;SDS011;65538;50.798;6.064;2023-03-21T18:23:35;7.18;;;2.80;;
76640;SDS011;65538;50.798;6.064;2023-03-21T18:26:01;4.03;;;2.25;;
76640;SDS011;65538;50.798;6.064;2023-03-21T18:28:26;6.10;;;2.23;;
76640;SDS011;65538;50.798;6.064;2023-03-21T18:30:51;7.80;;;2.10;;
76640;SDS011;65538;50.798;6.064;2023-03-21T18:33:17;3.93;;;1.80;;
76640;SDS011;65538;50.798;6.064;2023-03-21T18:35:42;8.00;;;2.20;;
76640;SDS011;65538;50.798;6.064;2023-03-21T18:38:07;7.27;;;2.90;;
76640;SDS011;65538;50.798;6.064;2023-03-21T18:40:32;11.10;;;2.30;;
76640;SDS011;65538;50.798;6.064;2023-03-21T18:42:57;8.00;;;2.23;;
76640;SDS011;65538;50.798;6.064;2023-03-21T18:45:23;7.27;;;2.70;;
76640;SDS011;65538;50.798;6.064;2023-03-21T18:47:49;9.02;;;2.83;;
76640;SDS011;65538;50.798;6.064;2023-03-21T18:50:16;5.38;;;2.78;;
76640;SDS011;65538;50.798;6.064;2023-03-21T18:52:41;4.53;;;2.75;;
76640;SDS011;65538;50.798;6.064;2023-03-21T18:55:07;6.38;;;3.33;;
76640;SDS011;65538;50.798;6.064;2023-03-21T18:57:33;6.25;;;2.97;;
76640;SDS011;65538;50.798;6.064;2023-03-21T18:59:58;9.85;;;3.03;;
76640;SDS011;65538;50.798;6.064;2023-03-21T19:02:23;7.68;;;3.30;;
76640;SDS011;65538;50.798;6.064;2023-03-21T19:04:49;8.40;;;3.60;;
76640;SDS011;65538;50.798;6.064;2023-03-21T19:07:14;8.30;;;3.03;;
76640;SDS011;65538;50.798;6.064;2023-03-21T19:09:39;5.90;;;2.97;;
76640;SDS011;65538;50.798;6.064;2023-03-21T19:12:05;6.63;;;2.67;;
76640;SDS011;65538;50.798;6.064;2023-03-21T19:14:31;7.82;;;3.10;;
76640;SDS011;65538;50.798;6.064;2023-03-21T19:16:56;7.70;;;3.60;;
76640;SDS011;65538;50.798;6.064;2023-03-21T19:19:24;5.72;;;3.60;;
76640;SDS011;65538;50.798;6.064;2023-03-21T19:21:49;7.60;;;3.45;;
76640;SDS011;65538;50.798;6.064;2023-03-21T19:24:15;7.95;;;3.53;;
76640;SDS011;65538;50.798;6.064;2023-03-21T19:26:41;6.60;;;3.65;;
76640;SDS011;65538;50.798;6.064;2023-03-21T19:29:06;11.40;;;4.67;;
76640;SDS011;65538;50.798;6.064;2023-03-21T19:31:31;7.60;;;3.37;;
76640;SDS011;65538;50.798;6.064;2023-03-21T19:33:56;6.50;;;3.73;;
76640;SDS011;65538;50.798;6.064;2023-03-21T19:36:22;10.83;;;4.30;;
76640;SDS011;65538;50.798;6.064;2023-03-21T19:38:47;8.63;;;3.90;;
76640;SDS011;65538;50.798;6.064;2023-03-21T19:41:12;7.73;;;4.03;;
76640;SDS011;65538;50.798;6.064;2023-03-21T19:43:37;5.85;;;3.65;;
76640;SDS011;65538;50.798;6.064;2023-03-21T19:46:03;6.83;;;3.10;;
76640;SDS011;65538;50.798;6.064;2023-03-21T19:48:28;7.53;;;3.30;;
76640;SDS011;65538;50.798;6.064;2023-03-21T19:50:53;11.53;;;4.30;;
76640;SDS011;65538;50.798;6.064;2023-03-21T19:53:19;6.80;;;3.43;;
76640;SDS011;65538;50.798;6.064;2023-03-21T19:55:48;4.80;;;2.50;;
76640;SDS011;65538;50.798;6.064;2023-03-21T19:58:13;8.05;;;4.32;;
76640;SDS011;65538;50.798;6.064;2023-03-21T20:00:40;9.25;;;3.95;;
76640;SDS011;65538;50.798;6.064;2023-03-21T20:03:05;6.63;;;3.70;;
76640;SDS011;65538;50.798;6.064;2023-03-21T20:05:32;7.28;;;3.50;;
76640;SDS011;65538;50.798;6.064;2023-03-21T20:07:57;7.77;;;3.37;;
76640;SDS011;65538;50.798;6.064;2023-03-21T20:10:23;7.03;;;3.70;;
76640;SDS011;65538;50.798;6.064;2023-03-21T20:12:51;8.02;;;3.25;;
76640;SDS011;65538;50.798;6.064;2023-03-21T20:15:16;6.22;;;3.13;;
76640;SDS011;65538;50.798;6.064;2023-03-21T20:17:42;8.33;;;3.10;;
76640;SDS011;65538;50.798;6.064;2023-03-21T20:20:07;7.80;;;3.85;;
76640;SDS011;65538;50.798;6.064;2023-03-21T20:22:41;9.07;;;3.28;;
76640;SDS011;65538;50.798;6.064;2023-03-21T20:25:06;8.02;;;2.95;;
76640;SDS011;65538;50.798;6.064;2023-03-21T20:27:42;9.90;;;3.53;;
76640;SDS011;65538;50.798;6.064;2023-03-21T20:30:09;7.57;;;4.18;;
76640;SDS011;65538;50.798;6.064;2023-03-21T20:32:35;7.65;;;3.90;;
76640;SDS011;65538;50.798;6.064;2023-03-21T20:35:01;10.13;;;3.70;;
76640;SDS011;65538;50.798;6.064;2023-03-21T20:37:30;11.50;;;4.80;;
76640;SDS011;65538;50.798;6.064;2023-03-21T20:39:56;8.40;;;4.37;;
76640;SDS011;65538;50.798;6.064;2023-03-21T20:42:21;9.00;;;4.37;;
76640;SDS011;65538;50.798;6.064;2023-03-21T20:44:46;7.73;;;3.73;;
76640;SDS011;65538;50.798;6.064;2023-03-21T20:47:11;6.97;;;3.40;;
76640;SDS011;65538;50.798;6.064;2023-03-21T20:49:37;12.02;;;4.70;;
76640;SDS011;65538;50.798;6.064;2023-03-21T20:52:02;8.93;;;4.80;;
76640;SDS011;65538;50.798;6.064;2023-03-21T20:54:31;10.40;;;4.73;;
76640;SDS011;65538;50.798;6.064;2023-03-21T20:56:58;9.20;;;3.75;;
76640;SDS011;65538;50.798;6.064;2023-03-21T20:59:23;10.00;;;4.33;;
76640;SDS011;65538;50.798;6.064;2023-03-21T21:01:49;7.27;;;4.57;;
76640;SDS011;65538;50.798;6.064;2023-03-21T21:04:14;8.63;;;4.88;;
76640;SDS011;65538;50.798;6.064;2023-03-21T21:06:43;8.02;;;4.05;;
76640;SDS011;65538;50.798;6.064;2023-03-21T21:09:09;8.03;;;4.93;;
76640;SDS011;65538;50.798;6.064;2023-03-21T21:11:34;7.65;;;3.83;;
76640;SDS011;65538;50.798;6.064;2023-03-21T21:13:59;9.30;;;4.77;;
76640;SDS011;65538;50.798;6.064;2023-03-21T21:16:25;8.50;;;4.80;;
76640;SDS011;65538;50.798;6.064;2023-03-21T21:18:50;7.90;;;4.77;;
76640;SDS011;65538;50.798;6.064;2023-03-21T21:21:15;10.23;;;4.30;;
76640;SDS011;65538;50.798;6.064;2023-03-21T21:23:41;7.25;;;4.05;;
76640;SDS011;65538;50.798;6.064;2023-03-21T21:26:07;7.07;;;4.40;;
76640;SDS011;65538;50.798;6.064;2023-03-21T21:28:33;12.15;;;4.75;;
76640;SDS011;65538;50.798;6.064;2023-03-21T21:31:12;8.57;;;4.45;;
76640;SDS011;65538;50.798;6.064;2023-03-21T21:33:38;9.60;;;3.70;;
76640;SDS011;65538;50.798;6.064;2023-03-21T21:36:04;9.83;;;5.07;;
76640;SDS011;65538;50.798;6.064;2023-03-21T21:38:31;9.82;;;3.80;;
76640;SDS011;65538;50.798;6.064;2023-03-21T21:40:58;8.80;;;4.38;;
76640;SDS011;65538;50.798;6.064;2023-03-21T21:43:24;8.20;;;3.35;;
76640;SDS011;65538;50.798;6.064;2023-03-21T21:45:49;8.25;;;4.65;;
76640;SDS011;65538;50.798;6.064;2023-03-21T21:48:15;11.47;;;4.47;;
76640;SDS011;65538;50.798;6.064;2023-03-21T21:50:40;10.32;;;4.85;;
76640;SDS011;65538;50.798;6.064;2023-03-21T21:53:06;11.95;;;4.63;;
76640;SDS011;65538;50.798;6.064;2023-03-21T21:55:32;12.27;;;4.38;;
76640;SDS011;65538;50.798;6.064;2023-03-21T21:57:58;6.72;;;4.07;;
76640;SDS011;65538;50.798;6.064;2023-03-21T22:00:24;8.50;;;4.55;;
76640;SDS011;65538;50.798;6.064;2023-03-21T22:02:50;9.70;;;5.05;;
76640;SDS011;65538;50.798;6.064;2023-03-21T22:05:15;11.27;;;4.30;;
76640;SDS011;65538;50.798;6.064;2023-03-21T22:07:40;7.17;;;3.57;;
76640;SDS011;65538;50.798;6.064;2023-03-21T22:10:06;7.30;;;3.47;;